createdAt,value
2023-02-08T11:44:04.264Z,3.87
2023-02-08T11:45:06.350Z,4.09
2023-02-08T11:46:10.187Z,4.22
2023-02-08T11:47:14.017Z,4.26
2023-02-08T11:48:10.011Z,4.16
2023-02-08T11:49:18.507Z,3.81
2023-02-08T11:50:07.132Z,3.87
2023-02-08T11:51:04.154Z,3.64
2023-02-08T11:52:11.595Z,3.89
2023-02-08T11:53:04.418Z,3.90
2023-02-08T11:54:04.288Z,3.63
2023-02-08T11:55:04.492Z,3.60
2023-02-08T11:56:13.410Z,3.50
2023-02-08T11:57:04.474Z,3.97
2023-02-08T11:58:04.335Z,4.14
2023-02-08T11:59:04.453Z,3.71
2023-02-08T12:00:04.394Z,3.94
2023-02-08T12:01:04.368Z,4.22
2023-02-08T12:06:53.105Z,4.54
2023-02-08T12:07:54.690Z,4.28
2023-02-08T12:08:53.272Z,4.13
2023-02-08T12:09:53.169Z,4.29
2023-02-08T12:14:06.668Z,4.49
2023-02-08T12:15:06.353Z,4.75
2023-02-08T12:16:06.324Z,5.01
2023-02-08T12:19:03.203Z,5.30
2023-02-08T12:20:00.364Z,6.06
2023-02-08T12:24:47.770Z,7.49
2023-02-08T12:26:47.924Z,8.18
2023-02-08T12:30:14.786Z,8.89
2023-02-08T12:31:14.770Z,8.52
2023-02-08T12:35:33.026Z,9.84
2023-02-08T12:36:21.776Z,10.49
2023-02-08T12:39:56.236Z,12.05
2023-02-08T12:40:56.203Z,11.57
2023-02-08T12:44:02.432Z,11.37
2023-02-08T12:53:47.012Z,8.33
2023-02-08T12:54:47.210Z,7.18
2023-02-08T12:55:47.527Z,6.48
2023-02-08T12:57:00.376Z,6.27
2023-02-08T12:57:47.240Z,5.98
2023-02-08T12:58:47.257Z,5.60
2023-02-08T12:59:47.232Z,5.58
2023-02-08T13:00:47.180Z,5.74
2023-02-08T13:01:47.255Z,5.74
2023-02-08T13:02:47.300Z,6.26
2023-02-08T13:03:47.212Z,6.87
2023-02-08T13:07:52.837Z,6.77
2023-02-08T13:08:52.909Z,6.90
2023-02-08T13:09:53.035Z,6.96
2023-02-08T13:10:52.995Z,6.95
2023-02-08T13:11:53.052Z,6.96
2023-02-08T13:12:53.135Z,6.49
2023-02-08T13:13:53.070Z,5.83
2023-02-08T13:14:53.512Z,5.22
2023-02-08T13:15:53.052Z,4.59
2023-02-08T13:16:52.974Z,3.74
2023-02-08T13:17:53.042Z,3.13
2023-02-08T13:19:00.337Z,2.94
2023-02-08T13:20:00.117Z,2.72
2023-02-08T13:20:53.026Z,2.48
2023-02-08T13:21:53.070Z,2.33
2023-02-08T13:22:55.212Z,2.19
2023-02-08T13:23:53.447Z,2.07
2023-02-08T13:25:06.316Z,1.96
2023-02-08T13:25:53.144Z,1.92
2023-02-08T13:26:53.013Z,1.81
2023-02-08T13:27:53.040Z,1.71
2023-02-08T13:28:53.121Z,1.61
2023-02-08T13:29:54.184Z,1.60
2023-02-08T13:30:53.318Z,1.50
2023-02-08T13:31:53.029Z,1.46
2023-02-08T13:32:54.762Z,1.42
2023-02-08T13:34:01.356Z,1.38
2023-02-08T13:34:57.640Z,1.37
2023-02-08T13:35:55.724Z,1.31
2023-02-08T13:36:53.161Z,1.28
2023-02-08T13:37:53.146Z,1.29
2023-02-08T13:38:53.074Z,1.30
2023-02-08T13:39:55.026Z,1.27
2023-02-08T13:41:05.299Z,1.26
2023-02-08T13:41:53.196Z,1.25
2023-02-08T13:42:53.239Z,1.21
2023-02-08T13:43:53.171Z,1.19
2023-02-08T13:44:53.069Z,1.19
2023-02-08T13:45:55.303Z,1.15
2023-02-08T13:46:53.111Z,1.17
2023-02-08T13:47:54.805Z,1.18
2023-02-08T13:48:53.234Z,1.20
2023-02-08T13:49:53.595Z,1.23
2023-02-08T13:50:59.389Z,1.25
2023-02-08T13:51:56.061Z,1.26
2023-02-08T13:52:55.146Z,1.25
2023-02-08T13:53:53.312Z,1.24
2023-02-08T13:54:53.358Z,1.26
2023-02-08T13:55:56.451Z,1.28
2023-02-08T13:56:53.203Z,1.27
2023-02-08T13:57:53.176Z,1.28
2023-02-08T13:58:54.163Z,1.29
2023-02-08T14:00:00.490Z,1.26
2023-02-08T14:00:53.346Z,1.25
2023-02-08T14:01:53.375Z,1.24
2023-02-08T14:03:15.131Z,1.22
2023-02-08T14:03:53.199Z,1.22
2023-02-08T14:04:53.369Z,1.22
2023-02-08T14:06:53.320Z,1.16
2023-02-08T14:07:53.258Z,1.14
2023-02-08T14:08:53.163Z,1.14
2023-02-08T14:09:53.256Z,1.13
2023-02-08T14:10:53.301Z,1.10
2023-02-08T14:11:53.283Z,1.08
2023-02-08T14:12:53.321Z,1.05
2023-02-08T14:13:53.254Z,1.03
2023-02-08T14:14:53.649Z,1.00
2023-02-08T14:15:53.240Z,0.99
2023-02-08T14:16:53.242Z,0.98
2023-02-08T14:17:53.336Z,0.95
2023-02-08T14:18:53.399Z,0.93
2023-02-08T14:19:53.236Z,0.91
2023-02-08T14:20:53.298Z,0.88
2023-02-08T14:21:53.214Z,0.87
2023-02-08T14:22:53.179Z,0.85
2023-02-08T14:23:53.234Z,0.84
2023-02-08T14:24:53.283Z,0.81
2023-02-08T14:25:53.261Z,0.78
2023-02-08T14:26:53.353Z,0.75
2023-02-08T14:27:53.379Z,0.74
2023-02-08T14:28:53.321Z,0.70
2023-02-08T14:29:53.347Z,0.68
2023-02-08T14:30:53.258Z,0.68
2023-02-08T14:31:53.441Z,0.66
2023-02-08T14:32:53.363Z,0.65
2023-02-08T14:33:53.268Z,0.62
2023-02-08T14:34:53.340Z,0.61
2023-02-08T14:35:53.355Z,0.60
2023-02-08T14:36:53.254Z,0.58
